createdAt,value
2022-12-06T00:00:36.475Z,5.75
2022-12-06T00:05:41.865Z,6.35
2022-12-06T00:10:47.695Z,6.80
2022-12-06T00:15:49.401Z,6.15
2022-12-06T00:20:51.112Z,5.45
2022-12-06T00:25:52.862Z,5.13
2022-12-06T00:31:01.752Z,5.90
2022-12-06T00:36:07.295Z,5.78
2022-12-06T00:41:12.539Z,5.97
2022-12-06T00:46:17.503Z,5.85
2022-12-06T00:51:20.888Z,6.10
2022-12-06T00:56:22.756Z,5.90
2022-12-06T01:01:27.456Z,6.40
2022-12-06T01:06:31.750Z,5.97
2022-12-06T01:11:33.644Z,6.05
2022-12-06T01:16:35.633Z,6.60
2022-12-06T01:21:37.490Z,7.30
2022-12-06T01:26:39.179Z,7.25
2022-12-06T01:31:40.888Z,6.80
2022-12-06T01:36:43.443Z,6.53
2022-12-06T01:41:45.092Z,6.22
2022-12-06T01:46:46.804Z,6.03
2022-12-06T01:51:54.657Z,6.63
2022-12-06T01:56:57.778Z,6.90
2022-12-06T02:01:59.643Z,6.72
2022-12-06T02:07:01.910Z,7.03
2022-12-06T02:12:06.537Z,6.65
2022-12-06T02:17:38.866Z,6.63
2022-12-06T02:22:58.906Z,6.85
2022-12-06T02:28:26.517Z,6.68
2022-12-06T02:33:44.207Z,6.45
2022-12-06T02:38:57.012Z,6.82
2022-12-06T02:44:04.569Z,6.93
2022-12-06T02:49:08.449Z,6.40
2022-12-06T02:54:11.788Z,6.30
2022-12-06T02:59:13.645Z,7.43
2022-12-06T03:04:33.788Z,6.90
2022-12-06T03:09:51.400Z,7.13
2022-12-06T03:15:34.195Z,7.20
2022-12-06T03:20:47.506Z,7.22
2022-12-06T03:25:51.448Z,6.57
2022-12-06T03:30:57.629Z,6.30
2022-12-06T03:36:00.121Z,7.53
2022-12-06T03:41:06.098Z,6.23
2022-12-06T03:46:19.181Z,6.68
2022-12-06T03:51:26.486Z,7.00
2022-12-06T03:56:28.916Z,6.63
2022-12-06T04:01:30.651Z,6.55
2022-12-06T04:06:32.888Z,6.38
2022-12-06T04:11:34.545Z,5.63
2022-12-06T04:16:54.862Z,6.03
2022-12-06T04:22:15.195Z,5.53
2022-12-06T04:27:35.612Z,4.68
2022-12-06T04:32:55.867Z,4.72
2022-12-06T04:38:17.032Z,5.65
2022-12-06T04:43:37.187Z,5.38
2022-12-06T04:48:39.187Z,4.78
2022-12-06T04:53:40.870Z,5.63
2022-12-06T04:58:43.202Z,6.00
2022-12-06T05:03:44.904Z,5.90
2022-12-06T05:08:46.670Z,5.78
2022-12-06T05:13:48.341Z,6.68
2022-12-06T05:18:50.026Z,6.47
2022-12-06T05:23:55.476Z,6.68
2022-12-06T05:28:58.228Z,6.30
2022-12-06T05:33:59.969Z,7.47
2022-12-06T05:39:01.628Z,7.40
2022-12-06T05:44:03.333Z,6.72
2022-12-06T05:49:05.015Z,7.15
2022-12-06T05:54:06.806Z,6.85
2022-12-06T05:59:08.507Z,7.25
2022-12-06T06:04:10.317Z,7.80
2022-12-06T06:09:11.992Z,6.50
2022-12-06T06:14:14.955Z,7.55
2022-12-06T06:19:16.646Z,7.43
2022-12-06T06:24:18.335Z,7.40
2022-12-06T06:29:20.039Z,7.63
2022-12-06T06:34:21.767Z,7.05
2022-12-06T06:39:23.442Z,8.43
2022-12-06T06:44:25.197Z,7.65
2022-12-06T06:49:26.877Z,7.65
2022-12-06T06:54:28.592Z,7.60
2022-12-06T06:59:30.430Z,7.22
2022-12-06T07:04:32.072Z,8.55
2022-12-06T07:09:34.683Z,8.75
2022-12-06T07:14:36.452Z,9.63
2022-12-06T07:19:38.200Z,10.73
2022-12-06T07:24:42.817Z,10.20
2022-12-06T07:29:44.595Z,10.18
2022-12-06T07:34:46.261Z,10.00
2022-12-06T07:39:47.930Z,10.48
2022-12-06T07:45:02.827Z,10.25
2022-12-06T07:50:06.489Z,10.40
2022-12-06T07:55:10.095Z,11.00
2022-12-06T08:00:15.216Z,10.15
2022-12-06T08:05:17.016Z,10.23
2022-12-06T08:10:18.864Z,9.60
2022-12-06T08:15:20.540Z,10.18
2022-12-06T08:20:23.538Z,9.40
2022-12-06T08:25:25.371Z,9.32
2022-12-06T08:30:27.277Z,9.98
2022-12-06T08:35:28.962Z,9.52
2022-12-06T08:40:30.632Z,10.43
2022-12-06T08:45:33.593Z,10.45
2022-12-06T08:50:35.298Z,10.25
2022-12-06T08:55:36.990Z,9.85
2022-12-06T09:00:38.706Z,9.65
2022-12-06T09:05:40.363Z,10.23
2022-12-06T09:10:43.572Z,9.75
2022-12-06T09:15:45.279Z,10.23
2022-12-06T09:20:46.996Z,8.95
2022-12-06T09:25:48.763Z,8.90
2022-12-06T09:30:50.459Z,9.43
2022-12-06T09:35:53.416Z,8.98
2022-12-06T09:41:04.113Z,9.05
2022-12-06T09:46:24.769Z,9.10
2022-12-06T09:51:49.797Z,9.95
2022-12-06T09:57:01.060Z,8.93
2022-12-06T10:02:17.715Z,9.88
2022-12-06T10:07:33.259Z,8.13
2022-12-06T10:13:02.584Z,8.65
2022-12-06T10:18:22.324Z,8.45
2022-12-06T10:23:41.522Z,8.10
2022-12-06T10:28:44.511Z,7.32
2022-12-06T10:33:49.151Z,7.65
2022-12-06T10:39:00.022Z,7.22
2022-12-06T10:44:13.534Z,8.68
2022-12-06T10:49:36.729Z,7.97
2022-12-06T10:54:50.802Z,7.85
2022-12-06T11:00:19.361Z,6.90
2022-12-06T11:05:32.319Z,7.22
2022-12-06T11:10:35.452Z,6.32
2022-12-06T11:15:42.436Z,6.88
2022-12-06T11:20:56.870Z,6.60
2022-12-06T11:26:23.045Z,6.82
2022-12-06T11:31:46.624Z,6.47
2022-12-06T11:36:56.614Z,6.47
2022-12-06T11:42:04.344Z,6.40
2022-12-06T11:47:07.411Z,6.35
2022-12-06T11:52:14.128Z,6.90
2022-12-06T11:57:26.309Z,6.72
2022-12-06T12:02:31.944Z,6.55
2022-12-06T12:07:35.549Z,7.35
2022-12-06T12:13:05.634Z,6.50
2022-12-06T12:18:23.599Z,7.68
2022-12-06T12:23:30.675Z,7.88
2022-12-06T12:28:34.676Z,7.47
2022-12-06T12:33:36.747Z,8.30
2022-12-06T12:38:50.363Z,8.10
2022-12-06T12:44:37.195Z,8.30
2022-12-06T12:49:29.810Z,8.10
2022-12-06T12:54:34.780Z,10.15
2022-12-06T12:59:40.285Z,8.70
2022-12-06T13:04:45.461Z,9.25
2022-12-06T13:10:02.934Z,10.05
2022-12-06T13:15:34.044Z,10.93
2022-12-06T13:20:37.330Z,9.82
2022-12-06T13:25:39.750Z,11.20
2022-12-06T13:30:42.692Z,10.70
2022-12-06T13:35:54.896Z,11.32
2022-12-06T13:40:58.588Z,12.15
2022-12-06T13:46:09.549Z,12.13
2022-12-06T13:51:32.851Z,12.82
2022-12-06T13:56:34.503Z,11.95
2022-12-06T14:01:52.549Z,14.15
2022-12-06T14:07:05.320Z,11.00
2022-12-06T14:12:09.751Z,17.23
2022-12-06T14:17:26.947Z,16.02
2022-12-06T14:22:37.580Z,11.60
2022-12-06T14:27:45.596Z,12.17
2022-12-06T14:32:56.609Z,11.48
2022-12-06T14:38:02.083Z,10.90
2022-12-06T14:43:16.032Z,11.27
2022-12-06T14:48:18.927Z,10.40
2022-12-06T14:53:37.604Z,10.18
2022-12-06T14:58:45.735Z,10.63
2022-12-06T15:04:01.922Z,10.15
2022-12-06T15:09:12.967Z,10.27
2022-12-06T15:14:23.022Z,10.20
2022-12-06T15:19:24.854Z,9.43
2022-12-06T15:24:28.185Z,11.20
2022-12-06T15:29:29.855Z,8.68
2022-12-06T15:34:35.234Z,8.57
2022-12-06T15:39:37.000Z,7.97
2022-12-06T15:44:38.736Z,7.67
2022-12-06T15:49:41.025Z,8.87
2022-12-06T15:54:42.740Z,9.88
2022-12-06T15:59:44.424Z,10.02
2022-12-06T16:04:48.541Z,9.27
2022-12-06T16:09:50.266Z,9.17
2022-12-06T16:14:51.922Z,9.70
2022-12-06T16:20:12.095Z,8.53
2022-12-06T16:25:13.824Z,8.30
2022-12-06T16:30:15.914Z,8.17
2022-12-06T16:35:17.569Z,9.13
2022-12-06T16:40:21.707Z,8.17
2022-12-06T16:45:23.374Z,7.28
2022-12-06T16:50:26.742Z,7.47
2022-12-06T16:55:28.417Z,6.43
2022-12-06T17:00:30.576Z,6.77
2022-12-06T17:05:32.520Z,5.67
2022-12-06T17:10:34.212Z,6.17
2022-12-06T17:15:35.882Z,4.60
2022-12-06T17:20:37.551Z,4.23
2022-12-06T17:25:39.220Z,4.73
2022-12-06T17:30:40.949Z,3.85
2022-12-06T17:35:42.617Z,4.07
2022-12-06T17:40:44.372Z,4.93
2022-12-06T17:45:46.104Z,4.80
2022-12-06T17:50:47.796Z,4.75
2022-12-06T17:55:49.508Z,3.97
2022-12-06T18:00:51.237Z,4.20
2022-12-06T18:05:52.957Z,4.13
2022-12-06T18:11:00.159Z,2.97
2022-12-06T18:16:01.952Z,3.67
2022-12-06T18:21:10.738Z,3.55
2022-12-06T18:26:14.214Z,3.42
2022-12-06T18:31:16.187Z,3.10
2022-12-06T18:36:19.612Z,2.83
2022-12-06T18:41:22.626Z,3.07
2022-12-06T18:46:25.410Z,3.20
2022-12-06T18:51:30.235Z,2.77
2022-12-06T18:56:33.720Z,2.95
2022-12-06T19:01:37.609Z,2.40
2022-12-06T19:06:39.444Z,2.63
2022-12-06T19:11:43.815Z,3.40
2022-12-06T19:16:48.508Z,3.33
2022-12-06T19:21:52.389Z,3.00
2022-12-06T19:26:58.078Z,2.90
2022-12-06T19:31:59.773Z,2.90
2022-12-06T19:37:01.546Z,3.00
2022-12-06T19:42:21.754Z,2.90
2022-12-06T19:47:23.474Z,3.25
2022-12-06T19:52:29.403Z,2.85
2022-12-06T19:57:32.678Z,3.10
2022-12-06T20:02:34.895Z,3.13
2022-12-06T20:07:37.015Z,3.80
2022-12-06T20:12:38.752Z,3.30
2022-12-06T20:17:40.927Z,2.90
2022-12-06T20:22:42.904Z,2.73
2022-12-06T20:27:53.620Z,3.27
2022-12-06T20:32:55.459Z,3.40
2022-12-06T20:37:57.446Z,2.80
2022-12-06T20:42:59.157Z,2.92
2022-12-06T20:48:00.868Z,2.93
2022-12-06T20:53:02.697Z,2.87
2022-12-06T20:58:04.357Z,3.30
2022-12-06T21:03:06.121Z,3.53
2022-12-06T21:08:09.573Z,3.20
2022-12-06T21:13:11.298Z,3.37
2022-12-06T21:18:17.366Z,3.93
2022-12-06T21:23:20.714Z,3.47
2022-12-06T21:28:23.313Z,3.53
2022-12-06T21:33:26.110Z,4.17
2022-12-06T21:38:30.159Z,4.03
2022-12-06T21:43:31.830Z,4.93
2022-12-06T21:48:33.958Z,5.07
2022-12-06T21:53:36.791Z,4.63
2022-12-06T21:58:38.533Z,4.38
2022-12-06T22:03:40.612Z,4.57
2022-12-06T22:08:44.395Z,4.72
2022-12-06T22:13:47.213Z,5.70
2022-12-06T22:18:48.963Z,5.60
2022-12-06T22:23:51.540Z,6.57
2022-12-06T22:28:53.206Z,6.85
2022-12-06T22:33:56.919Z,7.37
2022-12-06T22:39:01.353Z,8.20
2022-12-06T22:44:05.306Z,8.85
2022-12-06T22:49:06.987Z,11.57
2022-12-06T22:54:12.816Z,11.17
2022-12-06T22:59:16.625Z,10.73
2022-12-06T23:04:18.319Z,12.23
2022-12-06T23:09:20.088Z,13.80
2022-12-06T23:14:21.808Z,12.82
2022-12-06T23:19:23.719Z,12.30
2022-12-06T23:24:25.414Z,13.43
2022-12-06T23:29:27.107Z,11.13
2022-12-06T23:34:28.817Z,12.00
2022-12-06T23:39:30.489Z,11.75
2022-12-06T23:44:32.242Z,11.38
2022-12-06T23:49:33.975Z,11.73
2022-12-06T23:54:35.708Z,10.35
2022-12-06T23:59:37.402Z,9.23
